Tiempo atmosférico en la estación meteorológica de Ayamonte, Huelva (2 m.)



Fecha
DESCASC
Temp. máxima en grados centígrados (hora)
DESCASC
Temp. mínima en grados centígrados (hora)
DESCASC
Temp. media en grados centígrados
DESCASC
Racha de viento máxima en m/sg (hora)
DESCASC
Velocidad máxima media en intervalos de 10 minutos(hora)
DESCASC
Precipitaciones diarias en mm
DESCASC
Precipitaciones de 00:00 a 06:00 en mm
DESCASC
Precipitaciones de 06:00 a 12:00 en mm
DESCASC
Precipitaciones de 12:00 a 18:00 en mm
DESCASC
Precipitaciones de 18:00 a 24:00 en mm
DESCASC
25-04-2019 21.8 (17:30) 13.2 (07:30) 17.5 10.28 (00:30) 5.83 (00:20) 1.8 1.7 0.1 0 0
24-04-2019 20.2 (17:20) 10.7 (03:20) 15.5 14.17 (14:20) 8.61 (14:30) 3 0 2.7 0.2 0.1
23-04-2019 18.5 (14:20) 11 (23:59) 14.8 11.67 (19:10) 6.39 (19:10) 13.3 5.3 0 8 0
22-04-2019 23.6 (15:40) 11.2 (00:00) 17.4 13.61 (19:40) 8.33 (19:40) 0.1 0 0 0 0.1
21-04-2019 22.8 (14:00) 12.3 (00:00) 17.5 8.89 (17:40) 5.28 (18:20) 0.7 0 0 0 0.7
20-04-2019 21.3 (18:20) 12.1 (00:00) 16.7 7.22 (22:30) 3.33 (22:10) 0 0 0 0 0
19-04-2019 19.2 (14:20) 9.8 (00:00) 14.5 6.11 (14:20) 3.89 (14:20) 0.6 0 0 0.6 0
18-04-2019 19.7 (18:10) 12.5 (00:00) 16.1 9.17 (15:20) 5.56 (15:20) 9.3 8.4 0.1 0.8 0
17-04-2019 19.4 (12:30) 13.3 (00:00) 16.3 10 (14:10) 5.83 (14:30) 0.4 0 0 0.4 0
16-04-2019 20.5 (16:10) 11.3 (00:00) 15.9 5.83 (22:40) 3.61 (23:00) 0 0 0 0 0
15-04-2019 24.3 (15:50) 12.1 (00:00) 18.2 11.11 (17:40) 6.94 (18:20) 0 0 0 0 0
14-04-2019 23.6 (14:30) 13.6 (00:00) 18.6 6.94 (00:10) 3.89 (15:00) 0 0 0 0 0
13-04-2019 22.8 (12:50) 12.3 (00:00) 17.5 9.17 (19:30) 5.56 (18:50) 0 0 0 0 0
12-04-2019 22.9 (13:50) 11.1 (00:00) 17 8.61 (18:20) 5 (18:30) 0 0 0 0 0
11-04-2019 21.8 (15:30) 10.9 (00:00) 16.3 9.17 (05:40) 5.28 (05:50) 0 0 0 0 0
10-04-2019 21.1 (17:50) 8.8 (00:00) 15 9.72 (16:40) 4.44 (18:20) 0 0 0 0 0
09-04-2019 21.2 (17:20) 9.2 (00:00) 15.2 9.17 (15:30) 5.83 (15:10) 0 0 0 0 0
08-04-2019 19.8 (16:10) 12.6 (00:00) 16.2 11.67 (17:40) 6.94 (18:00) 3.9 0 3.7 0.2 0
07-04-2019 19.2 (18:30) 10.4 (00:00) 14.8 11.94 (16:00) 6.39 (16:00) 4.1 0 0 4.1 0
06-04-2019 19.1 (17:30) 10 (00:00) 14.6 11.11 (18:00) 5.56 (16:40) 0.4 0 0 0.4 0
05-04-2019 16.6 (15:10) 11 (00:00) 13.8 12.22 (13:50) 7.22 (17:50) 6.9 5.5 0.1 1.3 0
04-04-2019 20 (15:50) 8 (00:00) 14 11.39 (17:20) 7.22 (17:20) 0 0 0 0 0
03-04-2019 21.8 (16:10) 10.2 (00:00) 16 12.5 (10:40) 5.28 (10:50) 0 0 0 0 0
02-04-2019 20.8 (17:10) 10.9 (00:00) 15.8 7.22 (17:20) 4.72 (17:50) 0 0 0 0 0
01-04-2019 21.2 (16:00) 10.3 (00:00) 15.8 9.17 (19:00) 5.83 (18:40) 0 0 0 0 0
31-03-2019 20.2 (14:00) 12 (00:00) 16.1 5.56 (14:40) 3.33 (14:40) 0 0 0 0 0
30-03-2019 21 (15:10) 8.8 (00:00) 14.9 7.22 (09:50) 3.61 (17:10) 0 0 0 0 0
29-03-2019 20.1 (15:20) 8.2 (00:00) 14.2 8.06 (15:00) 4.44 (16:00) 0 0 0 0 0
28-03-2019 21 (15:50) 7.1 (00:00) 14 8.89 (01:30) 3.89 (16:40) 0 0 0 0 0
27-03-2019 20.1 (15:50) 10.9 (00:00) 15.5 9.72 (00:40) 5.28 (00:40) 0 0 0 0 0

Gráficas

Temp. máximas Temp. mínimas Temp. medias Precipitaciones Rachas de viento máximas Velocidades máximas media en intervalos de 10 minutos

Datos horarios

Fecha y hora oficial Temperatura (ºC) Velocidad del viento (km/h) Dirección del viento Racha (km/h) Dirección de racha Precipitación (mm) Presión (hPa) Tendencia (hPa) Humedad (%)
2019-04-25 23:00:00 14.3 5 Noroeste 18 Noroeste 0 1021.7 3.2 56
2019-04-25 22:00:00 15.4 5 Noroeste 25 Noroeste 0 1020.4 2.5 50
2019-04-25 21:00:00 17 10 Noroeste 26 Noroeste 0 1019.4 1.9 44
2019-04-25 20:00:00 18.8 11 Noroeste 28 Noroeste 0 1018.5 1.6 39
2019-04-25 19:00:00 20.2 14 Noroeste 31 Noroeste 0 1017.9 1.4 37
2019-04-25 18:00:00 19.7 13 Noroeste 27 Noroeste 0 1017.5 1.3 39
2019-04-25 17:00:00 20.9 15 Noroeste 30 Noroeste 0 1016.9 0.9 39
2019-04-25 16:00:00 19.9 11 Noroeste 28 Noroeste 0 1016.5 0.2 42
2019-04-25 15:00:00 19.6 8 Noroeste 27 Sudoeste 0 1016.2 0.2 46
2019-04-25 14:00:00 19.1 17 Sudoeste 27 Sudoeste 0 1016 0.6 55
2019-04-25 13:00:00 18.3 11 Sudoeste 26 Sudoeste 0 1016.3 1.6 61
2019-04-25 12:00:00 19.5 13 Sudoeste 24 Sudoeste 0 1016 1.9 64
2019-04-25 11:00:00 16.9 11 Sudoeste 18 Sudoeste 0 1015.4 2.2 69
2019-04-25 10:00:00 15.8 8 Oeste 17 Oeste 0 1014.7 2.1 85
2019-04-25 09:00:00 13.9 3 Noroeste 9 Oeste 0 1014.1 1.8 92
2019-04-25 08:00:00 13.4 4 Oeste 12 Oeste 0 1013.2 1.4 92
2019-04-25 07:00:00 13.5 7 Sudoeste 17 Sudoeste 0.1 1012.6 1 92
2019-04-25 06:00:00 14 10 Oeste 19 Oeste 0 1012.3 0.7 92
2019-04-25 05:00:00 13.9 10 Oeste 22 Oeste 0 1011.8 0.3 92
2019-04-25 04:00:00 14.8 8 Sudoeste 18 Oeste 0 1011.6 0.3 93
2019-04-25 03:00:00 14.9 10 Oeste 24 Sudoeste 0.1 1011.6 0.8 93
2019-04-25 02:00:00 15.3 12 Sudoeste 28 Sudoeste 0.3 1011.5 0.9 93
2019-04-25 01:00:00 15.5 18 Sudoeste 37 Sudoeste 1.3 1011.3 1.3 92
2019-04-25 00:00:00 16.5 18 Sudoeste 40 Sudoeste 0 1010.8 1.3 87
2019-04-24 23:00:00 16.4 20 Sudoeste 39 Sudoeste 0 1010.6 1.3 88
2019-04-24 22:00:00 16.7 23 Sudoeste 36 Sudoeste 0 1010 0.8 86
2019-04-24 21:00:00 16.7 19 Sudoeste 32 Sudoeste 0 1009.5 0.7 84
2019-04-24 20:00:00 17.7 19 Sudoeste 45 Sudoeste 0 1009.3 0.7 80
2019-04-24 19:00:00 19.1 25 Sudoeste 41 Sudoeste 0.1 1009.2 0.3 75
2019-04-24 18:00:00 17.9 23 Sudoeste 44 Sudoeste 0.1 1008.8 -0.2 86
2019-04-24 17:00:00 19.4 26 Sudoeste 45 Sudoeste 0 1008.6 -0.1 70
2019-04-24 16:00:00 19.8 27 Sudoeste 49 Sudoeste 0.1 1008.9 0.3 70
2019-04-24 15:00:00 17.7 28 Sudoeste 51 Sudoeste 0 1009 0.5 79
2019-04-24 14:00:00 19.5 27 Sudoeste 45 Sudoeste 0 1008.7 0.8 70
2019-04-24 13:00:00 18.3 25 Sudoeste 42 Sudoeste 0 1008.6 0.8 76
2019-04-24 12:00:00 17.7 27 Sudoeste 45 Sudoeste 0.1 1008.5 1.1 78
2019-04-24 11:00:00 16.6 24 Sudoeste 38 Sudoeste 1.7 1007.9 1.2 85
2019-04-24 10:00:00 14.7 14 Sudoeste 45 Oeste 0.9 1007.8 1.4 91
2019-04-24 09:00:00 15.5 23 Sudoeste 43 Oeste 0 1007.4 1 76
2019-04-24 08:00:00 14.8 19 Sudoeste 40 Sudoeste 0 1006.7 0.3 75
2019-04-24 07:00:00 14.8 17 Sudoeste 33 Sudoeste 0 1006.4 -0.2 74
2019-04-24 06:00:00 13.5 10 Sudoeste 17 Sudoeste 0 1006.4 -0.8 84
2019-04-24 05:00:00 11.9 8 Oeste 18 Oeste 0 1006.4 -1.1 86
2019-04-24 04:00:00 11 7 Sudoeste 14 Sudoeste 0 1006.6 -0.9 86
2019-04-24 03:00:00 10.8 4 Sudoeste 9 Oeste 0 1007.2 0 81
2019-04-24 02:00:00 11.4 4 Oeste 9 Oeste 0 1007.5 0.6 80
2019-04-24 01:00:00 11.2 5 Oeste 15 Oeste 0 1007.5 1.2 80
2019-04-24 00:00:00 11 3 Sudoeste 10 Sudoeste 0 1007.2 1.7 80
2019-04-23 23:00:00 11.7 2 Oeste 12 Oeste 0 1006.9 1.9 75
2019-04-23 22:00:00 12.7 7 Oeste 25 Oeste 0 1006.3 2.2 70
2019-04-23 21:00:00 13.5 15 Oeste 35 Oeste 0 1005.5 1.5 61
2019-04-23 20:00:00 15.2 20 Oeste 42 Oeste 0 1005 1.1 56
2019-04-23 19:00:00 15.6 15 Oeste 41 Oeste 0 1004.1 -0.1 68
2019-04-23 18:00:00 13.4 8 Este 28 Noroeste 5.8 1004 0 79
2019-04-23 17:00:00 15.6 9 Sur 16 Sudeste 0 1003.9 0 61
2019-04-23 16:00:00 13.4 4 Nordeste 39 Norte 2.1 1004.2 0.3 73
2019-04-23 15:00:00 15.1 5 Norte 24 Sudoeste 0 1004 0.6 52
2019-04-23 14:00:00 16.2 6 Noroeste 31 Noroeste 0 1003.9 1.2 51
2019-04-23 13:00:00 16.3 13 Noroeste 39 Noroeste 0.1 1003.9 1.5 46
2019-04-23 12:00:00 16.7 10 Oeste 27 Oeste 0 1003.4 1.5 44
2019-04-23 11:00:00 14.9 12 Noroeste 30 Oeste 0 1002.7 1.5 53
2019-04-23 10:00:00 14 10 Noroeste 19 Oeste 0 1002.4 1.9 61
2019-04-23 09:00:00 12.5 7 Oeste 14 Oeste 0 1001.9 1.4 74
2019-04-23 08:00:00 11.2 8 Oeste 16 Oeste 0 1001.2 1 80
2019-04-23 07:00:00 12 10 Oeste 17 Noroeste 0 1000.5 0.5 85
2019-04-23 06:00:00 12.4 9 Noroeste 17 Noroeste 0 1000.5 -0.2 88
2019-04-23 05:00:00 12.5 3 Noroeste 21 Noroeste 0 1000.2 -0.4 89
2019-04-23 04:00:00 12.5 10 Noroeste 28 Noroeste 2.8 1000 -1.1 89
2019-04-23 03:00:00 13.3 13 Noroeste 28 Sudoeste 2.5 1000.7 -0.8 87
2019-04-23 02:00:00 15.9 13 Sudoeste 29 Sudoeste 0 1000.6 -1.4 78
2019-04-23 01:00:00 16 12 Sudoeste 26 Sudoeste 0 1001.1 -0.3 78
2019-04-23 00:00:00 15.7 11 Sudoeste 33 Oeste 0.1 1001.5 0.2 79
2019-04-22 23:00:00 16.3 19 Oeste 36 Oeste 0 1002 0.8 72
2019-04-22 22:00:00 16.3 18 Oeste 36 Sudoeste 0 1001.4 0.2 72
2019-04-22 21:00:00 16.8 21 Sudoeste 42 Sudoeste 0 1001.3 0.2 74
2019-04-22 20:00:00 17.6 29 Sudoeste 49 Sudoeste 0 1001.2 -0.3 70
2019-04-22 19:00:00 20.2 25 Sudoeste 44 Oeste 0 1001.2 -0.8 61
2019-04-22 18:00:00 20.5 24 Sudoeste 42 Sudoeste 0 1001.1 -1.8 59
2019-04-22 17:00:00 22.1 24 Sudoeste 41 Oeste 0 1001.5 -2.2 52
2019-04-22 16:00:00 22.5 21 Sudoeste 37 Sudoeste 0 1002 -2.2 51
2019-04-22 15:00:00 20.5 17 Sur 26 Sur 0 1002.9 -1.9 60
2019-04-22 14:00:00 20 15 Sur 23 Sur 0 1003.7 -1.1 58
2019-04-22 13:00:00 19.7 10 Sur 19 Sur 0 1004.2 -0.5 59
2019-04-22 12:00:00 19.5 9 Sur 15 Sur 0 1004.8 0.5 61
2019-04-22 11:00:00 18.7 2 Este 6 Este 0 1004.8 0.6 61
2019-04-22 10:00:00 15.4 3 Norte 6 Noroeste 0 1004.7 0.9 75
2019-04-22 09:00:00 12.2 0 Calma 5 Norte 0 1004.3 0.1 88
2019-04-22 08:00:00 12.1 4 Norte 10 Norte 0 1004.2 -0.5 86
2019-04-22 07:00:00 12.2 4 Norte 9 Noroeste 0 1003.8 -1.5 88
2019-04-22 06:00:00 12 0 Calma 10 Norte 0 1004.2 -1.8 84
2019-04-22 05:00:00 12.8 0 Calma 10 Norte 0 1004.7 -1.8 81
2019-04-22 04:00:00 13.9 3 Norte 10 Norte 0 1005.3 -1.4 79
2019-04-22 03:00:00 13.9 5 Norte 9 Norte 0 1006 -0.9 85
2019-04-22 02:00:00 14.3 5 Norte 11 Norte 0 1006.5 -0.7 86
2019-04-22 01:00:00 14.4 5 Norte 9 Norte 0 1006.7 0 91
2019-04-22 00:00:00 14.9 3 Noroeste 4 Noroeste 0 1006.9 0.8 90
2019-04-21 23:00:00 15.5 0 Calma 7 Sudeste 0 1007.2 1.7 86
2019-04-21 22:00:00 16.3 5 Sur 8 Sur 0 1006.7 1 84
2019-04-21 21:00:00 17.2 5 Sudoeste 24 Oeste 0.2 1006.1 0.4 82
2019-04-21 20:00:00 17.6 14 Sudoeste 29 Sudoeste 0.5 1005.5 -0.7 76
2019-04-21 19:00:00 18.5 15 Sudoeste 31 Sudoeste 0 1005.7 -1 64
2019-04-21 18:00:00 19.8 18 Sudoeste 32 Sudoeste 0 1005.7 -1.3 52
2019-04-21 17:00:00 21.7 16 Sudoeste 26 Oeste 0 1006.2 -1.4 46
2019-04-21 16:00:00 20.1 12 Sudoeste 21 Sudoeste 0 1006.7 -1.6 46
2019-04-21 15:00:00 20.7 13 Sudoeste 24 Sur 0 1007 -1.7 47
2019-04-21 14:00:00 21.6 6 Sudeste 24 Nordeste 0 1007.6 -1.5 44
2019-04-21 13:00:00 21.2 8 Nordeste 21 Este 0 1008.3 -0.9 42
2019-04-21 12:00:00 20.1 9 Nordeste 16 Norte 0 1008.7 -0.6 47
2019-04-21 11:00:00 17.4 5 Norte 21 Noroeste 0 1009.1 0 57
2019-04-21 10:00:00 14.9 8 Norte 22 Noroeste 0 1009.2 -0.2 65
2019-04-21 09:00:00 13.2 8 Norte 18 Noroeste 0 1009.3 -0.3 72
2019-04-21 08:00:00 12.3 7 Noroeste 19 Noroeste 0 1009.1 -0.8 73
2019-04-21 07:00:00 12.6 7 Norte 20 Noroeste 0 1009.4 -0.9 73
2019-04-21 06:00:00 13.2 4 Norte 19 Norte 0 1009.6 -1.4 71
2019-04-21 05:00:00 13.6 3 Norte 16 Noroeste 0 1009.9 -1.6 69
2019-04-21 04:00:00 14.4 3 Norte 14 Noroeste 0 1010.3 -1.8 64
2019-04-21 03:00:00 14.9 2 Norte 8 Norte 0 1011 -1.1 63
2019-04-21 02:00:00 16 2 Norte 12 Norte 0 1011.5 -0.2 59
2019-04-21 01:00:00 16.1 4 Norte 10 Nordeste 0 1012.1 0.7 58
2019-04-21 00:00:00 16.6 5 Nordeste 18 Este 0 1012.1 1.3 57
2019-04-20 23:00:00 17 10 Este 26 Nordeste 0 1011.7 1.4 53
2019-04-20 22:00:00 17.8 11 Nordeste 23 Nordeste 0 1011.4 1.4 52
2019-04-20 21:00:00 19 7 Nordeste 23 Nordeste 0 1010.8 0.6 48
2019-04-20 20:00:00 20.3 7 Nordeste 21 Nordeste 0 1010.3 0 46
2019-04-20 19:00:00 20.7 4 Nordeste 17 Norte 0 1010 -1 48
2019-04-20 18:00:00 20.4 4 Nordeste 20 Nordeste 0 1010.2 -1.2 47
2019-04-20 17:00:00 19.8 4 Norte 24 Noroeste 0 1010.3 -1.6 51
2019-04-20 16:00:00 19.2 10 Norte 21 Norte 0 1011 -1.6 51
2019-04-20 15:00:00 19.8 5 Nordeste 19 Nordeste 0 1011.4 -1.2 48
2019-04-20 14:00:00 18.9 5 Nordeste 19 Norte 0 1011.9 -0.8 54
2019-04-20 13:00:00 17.4 8 Noroeste 18 Noroeste 0 1012.6 -0.3 64
2019-04-20 12:00:00 15.6 5 Norte 16 Noroeste 0 1012.6 0 72
2019-04-20 11:00:00 13.9 9 Noroeste 17 Noroeste 0 1012.7 0.3 78
2019-04-20 10:00:00 13.4 6 Noroeste 17 Noroeste 0 1012.9 0.5 82
2019-04-20 09:00:00 12.7 6 Norte 17 Noroeste 0 1012.6 -0.4 86
2019-04-20 08:00:00 12.3 8 Noroeste 17 Noroeste 0 1012.4 -0.8 89
2019-04-20 07:00:00 12.3 3 Norte 13 Noroeste 0 1012.4 -1.1 89
2019-04-20 06:00:00 12.5 3 Norte 17 Noroeste 0 1013 -0.6 89
2019-04-20 05:00:00 12.6 3 Norte 12 Norte 0 1013.2 -1 89
2019-04-20 04:00:00 12.8 4 Norte 12 Noroeste 0 1013.5 -0.5 89
2019-04-20 03:00:00 13.2 3 Norte 11 Noroeste 0 1013.6 -1 86
2019-04-20 02:00:00 13.5 2 Norte 18 Norte 0 1014.2 -0.8 83
2019-04-20 01:00:00 13.6 9 Noroeste 22 Norte 0 1014 -0.5 82
2019-04-20 00:00:00 13.7 3 Norte 12 Noroeste 0 1014.6 0.8 82
2019-04-19 23:00:00 14.1 2 Norte 10 Norte 0 1015 1.2 79
2019-04-19 22:00:00 14.6 0 Calma 8 Nordeste 0 1014.5 0.8 77
2019-04-19 21:00:00 14.9 3 Norte 19 Noroeste 0 1013.8 0.1 72
2019-04-19 20:00:00 15.7 9 Noroeste 19 Noroeste 0 1013.8 0 69
2019-04-19 19:00:00 16.4 3 Norte 16 Noroeste 0 1013.7 -0.1 66
2019-04-19 18:00:00 17 5 Noroeste 17 Oeste 0 1013.7 -0.1 59
2019-04-19 17:00:00 17.7 10 Sudoeste 22 Sudoeste 0 1013.8 -0.1 66
2019-04-19 16:00:00 17.6 10 Sudoeste 17 Sudoeste 0.5 1013.8 -0.7 74
2019-04-19 15:00:00 16.7 10 Sur 22 Sur 0.1 1013.8 -0.9 69
2019-04-19 14:00:00 18.3 13 Sur 20 Sur 0 1013.9 -0.4 56
2019-04-19 13:00:00 18.5 9 Sur 16 Sur 0 1014.5 0.4 61
2019-04-19 12:00:00 16.6 4 Este 11 Noroeste 0 1014.7 0.8 70
2019-04-19 11:00:00 13.9 4 Nordeste 10 Nordeste 0 1014.3 0.6 87
2019-04-19 10:00:00 12.4 3 Norte 14 Norte 0 1014.1 0.9 92
2019-04-19 09:00:00 12 3 Norte 14 Noroeste 0 1013.9 0.8 92
2019-04-19 08:00:00 11.4 7 Norte 13 Norte 0 1013.7 0.5 93
2019-04-19 07:00:00 10.3 2 Nordeste 6 Este 0 1013.2 -0.2 93
2019-04-19 06:00:00 10.1 0 Calma 5 Este 0 1013.1 -0.8 91
2019-04-19 05:00:00 10.8 0 Calma 5 Noroeste 0 1013.2 -0.8 91
2019-04-19 04:00:00 11.1 0 Calma 7 Noroeste 0 1013.4 -0.7 91
2019-04-19 03:00:00 11.1 0 Calma 4 Norte 0 1013.9 -0.3 90
2019-04-19 02:00:00 11.8 0 Calma 3 Norte 0 1014 -0.1 89
2019-04-19 01:00:00 12 0 Calma 4 Nordeste 0 1014.1 0.5 85
2019-04-19 00:00:00 12.6 0 Calma 4 Norte 0 1014.2 1.4 80
2019-04-18 23:00:00 14 0 Calma 9 Nordeste 0 1014.1 1.2 73
2019-04-18 22:00:00 15 3 Norte 6 Norte 0 1013.6 1.1 71
2019-04-18 21:00:00 16.2 4 Oeste 12 Oeste 0 1012.8 0.6 65
2019-04-18 20:00:00 17.1 6 Oeste 20 Oeste 0 1012.9 0.8 59
2019-04-18 19:00:00 18 9 Oeste 18 Sudoeste 0 1012.5 0.5 63
2019-04-18 18:00:00 19.6 9 Oeste 16 Sudoeste 0 1012.2 -0.1 55
2019-04-18 17:00:00 17.2 7 Oeste 21 Oeste 0 1012.1 -0.7 58
2019-04-18 16:00:00 17.2 15 Oeste 33 Sudoeste 0.2 1012 -0.6 65
2019-04-18 15:00:00 14.3 14 Oeste 27 Oeste 0.2 1012.3 -0.6 81
2019-04-18 14:00:00 16.2 10 Sudoeste 19 Sudoeste 0.4 1012.8 -0.1 80
2019-04-18 13:00:00 17.2 12 Sur 19 Sur 0 1012.6 0 60
2019-04-18 12:00:00 18.8 3 Sudeste 9 Noroeste 0 1012.9 0.6 58
2019-04-18 11:00:00 16.8 3 Norte 9 Norte 0 1012.9 1.2 71
2019-04-18 10:00:00 15.1 2 Norte 8 Noroeste 0 1012.6 1.4 88
2019-04-18 09:00:00 12.9 5 Noroeste 8 Norte 0 1012.3 1.1 93
2019-04-18 08:00:00 13.1 0 Calma 3 Nordeste 0 1011.7 0.7 93
2019-04-18 07:00:00 13.5 2 Norte 4 Norte 0.1 1011.2 -0.4 92
2019-04-18 06:00:00 13 0 Calma 8 Sur 0 1011.2 -0.6 91
2019-04-18 05:00:00 13.8 4 Sur 22 Sudeste 2 1011 -1.3 89
2019-04-18 04:00:00 14 4 Noroeste 22 Sur 5.6 1011.6 -0.9 82
2019-04-18 03:00:00 15.2 9 Sudoeste 21 Sudoeste 0.6 1011.8 -0.5 90
2019-04-18 02:00:00 15.2 9 Sudoeste 20 Sur 0 1012.3 0.1 87
2019-04-18 01:00:00 15.4 11 Sudoeste 19 Sudoeste 0.2 1012.5 1 85
2019-04-18 00:00:00 15.1 7 Sudoeste 17 Sudoeste 0 1012.3 1.5 81
2019-04-17 23:00:00 14.9 10 Sudoeste 23 Sudoeste 0 1012.2 1.8 78
2019-04-17 22:00:00 15.5 12 Sudoeste 27 Sudoeste 0 1011.5 1.7 72
2019-04-17 21:00:00 16.2 12 Sudoeste 27 Sudoeste 0 1010.8 1.3 67
2019-04-17 20:00:00 16 14 Sudoeste 28 Oeste 0 1010.4 0.7 66
2019-04-17 19:00:00 16.2 9 Sudoeste 20 Sur 0 1009.8 -0.6 68
2019-04-17 18:00:00 17.3 8 Sudoeste 20 Sudoeste 0 1009.5 -0.7 59
2019-04-17 17:00:00 17.2 9 Sudoeste 17 Sudoeste 0 1009.7 -0.1 61
2019-04-17 16:00:00 16.6 13 Sudoeste 22 Sudoeste 0 1010.4 0.7 68
2019-04-17 15:00:00 17.2 12 Sudoeste 36 Oeste 0 1010.2 0.6 63
2019-04-17 14:00:00 18 18 Sudoeste 32 Oeste 0.2 1009.8 0.6 73
2019-04-17 13:00:00 17.3 16 Sur 32 Sudoeste 0.2 1009.7 0.9 85
2019-04-17 12:00:00 18.2 19 Sur 32 Sur 0 1009.6 0.6 79
2019-04-17 11:00:00 18.3 18 Sur 33 Sur 0 1009.2 0.3 79
2019-04-17 10:00:00 17.3 17 Sur 31 Sur 0 1008.8 0 85
2019-04-17 09:00:00 17 18 Sur 28 Sur 0 1009 0.6 91
2019-04-17 08:00:00 14.2 4 Nordeste 8 Nordeste 0 1008.9 -0.4 92
2019-04-17 07:00:00 13.8 2 Noroeste 8 Este 0 1008.8 -1.4 93
2019-04-17 06:00:00 13.6 6 Este 9 Este 0 1008.4 -2.2 93
2019-04-17 05:00:00 13.8 4 Este 9 Este 0 1009.3 -2.1 92
2019-04-17 04:00:00 13.7 3 Nordeste 5 Este 0 1010.2 -1.5 92
2019-04-17 03:00:00 13.9 2 Este 4 Este 0 1010.6 -1.4 90
2019-04-17 02:00:00 14 2 Sudoeste 6 Sudoeste 0 1011.4 -1.3 88
2019-04-17 01:00:00 14.3 3 Sudoeste 8 Sudoeste 0 1011.7 -0.1 85
2019-04-17 00:00:00 15 4 Sudoeste 19 Oeste 0 1012 0.6 80
2019-04-16 23:00:00 16 13 Oeste 21 Oeste 0 1012.7 1.3 80
2019-04-16 22:00:00 15.6 7 Sudoeste 12 Sudoeste 0 1011.8 0.2 77
2019-04-16 21:00:00 16.6 6 Sudoeste 13 Sudoeste 0 1011.4 -1 72
2019-04-16 20:00:00 18 9 Sudoeste 17 Sudoeste 0 1011.4 -1.9 65
2019-04-16 19:00:00 18.7 7 Sudoeste 17 Sudoeste 0 1011.6 -2.6 59
2019-04-16 18:00:00 19.7 9 Sudoeste 18 Sudoeste 0 1012.4 -2.6 55
2019-04-16 17:00:00 19.1 10 Sudoeste 17 Sudoeste 0 1013.3 -2.7 54
2019-04-16 16:00:00 19.8 10 Sudoeste 18 Sudoeste 0 1014.2 -2.5 52
2019-04-16 15:00:00 19.6 10 Sudoeste 16 Sudoeste 0 1015 -2 53
2019-04-16 14:00:00 18.2 9 Sur 17 Sur 0 1016 -1 58
2019-04-16 13:00:00 18.1 7 Sur 18 Sur 0 1016.7 -0.5 60
2019-04-16 12:00:00 17.1 9 Sur 17 Sur 0 1017 -0.2 60
2019-04-16 11:00:00 17.1 4 Este 9 Nordeste 0 1017 0 65
2019-04-16 10:00:00 14.5 4 Norte 11 Nordeste 0 1017.2 0.5 76
2019-04-16 09:00:00 12.3 4 Norte 11 Noroeste 0 1017.2 0.2 86
2019-04-16 08:00:00 11.4 5 Norte 13 Noroeste 0 1017 -0.6 87
2019-04-16 07:00:00 11.7 6 Norte 15 Norte 0 1016.7 -1.2 86
2019-04-16 06:00:00 11.6 3 Noroeste 12 Noroeste 0 1017 -1.5 86
2019-04-16 05:00:00 12.3 0 Calma 12 Noroeste 0 1017.6 -1.2 84
2019-04-16 04:00:00 12.9 4 Noroeste 16 Noroeste 0 1017.9 -0.6 81
2019-04-16 03:00:00 13.3 6 Norte 12 Noroeste 0 1018.5 0.2 79
2019-04-16 02:00:00 13.7 5 Norte 14 Noroeste 0 1018.8 1 74
2019-04-16 01:00:00 14.6 7 Noroeste 17 Norte 0 1018.5 1.4 67
2019-04-16 00:00:00 14.9 5 Noroeste 11 Noroeste 0 1018.3 2 63
2019-04-15 23:00:00 16 6 Noroeste 12 Noroeste 0 1017.8 2.5 59
2019-04-15 22:00:00 17.4 4 Noroeste 19 Noroeste 0 1017.1 2.3 53
2019-04-15 21:00:00 18.8 9 Noroeste 26 Noroeste 0 1016.3 2.3 47
2019-04-15 20:00:00 21.2 10 Noroeste 22 Noroeste 0 1015.3 1.3 43
2019-04-15 19:00:00 21.6 14 Oeste 40 Sudoeste 0 1014.8 0.9 53
2019-04-15 18:00:00 21.8 22 Sudoeste 40 Sudoeste 0 1014 0.4 54
2019-04-15 17:00:00 21.6 17 Sudoeste 34 Oeste 0 1014 0.4 57
2019-04-15 16:00:00 23 17 Oeste 31 Oeste 0 1013.9 0.2 52
2019-04-15 15:00:00 22.5 15 Sudoeste 30 Sudoeste 0 1013.6 0 57
2019-04-15 14:00:00 22 17 Sudoeste 26 Sudoeste 0 1013.6 0.1 50
2019-04-15 13:00:00 23.2 6 Noroeste 22 Noroeste 0 1013.7 0.5 40
2019-04-15 12:00:00 21.1 7 Noroeste 19 Norte 0 1013.6 0.5 47
2019-04-15 11:00:00 19.2 5 Noroeste 13 Noroeste 0 1013.5 1.2 62
2019-04-15 10:00:00 16.3 4 Norte 8 Nordeste 0 1013.2 1.8 74
2019-04-15 09:00:00 14.1 4 Norte 9 Noroeste 0 1013.1 1.9 86
2019-04-15 08:00:00 12.9 3 Noroeste 12 Noroeste 0 1012.3 1 88
2019-04-15 07:00:00 12.5 2 Norte 9 Noroeste 0 1011.4 0 89
2019-04-15 06:00:00 12.1 2 Noroeste 8 Norte 0 1011.2 -1.1 87
2019-04-15 05:00:00 13.4 0 Calma 12 Noroeste 0 1011.3 -1.7 86
2019-04-15 04:00:00 13.1 2 Nordeste 5 Noroeste 0 1011.4 -1.8 87
2019-04-15 03:00:00 13.4 3 Norte 5 Norte 0 1012.3 -1.4 86
2019-04-15 02:00:00 14.3 0 Calma 2 Norte 0 1013 -0.9 81
2019-04-15 01:00:00 14.9 3 Nordeste 4 Nordeste 0 1013.2 -0.7 77
2019-04-15 00:00:00 16.1 0 Calma 5 Nordeste 0 1013.7 -0.3 67
2019-04-14 23:00:00 17.5 0 Calma 8 Oeste 0 1013.9 -0.4 59
2019-04-14 22:00:00 18.8 6 Oeste 9 Oeste 0 1013.9 -0.4 53
2019-04-14 21:00:00 19.6 5 Sudoeste 8 Oeste 0 1014 -0.6 50
2019-04-14 20:00:00 20.6 5 Sudoeste 10 Sudoeste 0 1014.3 -1.1 47
2019-04-14 19:00:00 21.3 5 Sudoeste 13 Sudoeste 0 1014.3 -2.1 45
2019-04-14 18:00:00 21.9 8 Sudoeste 15 Sur 0 1014.6 -2 45
2019-04-14 17:00:00 22 10 Sudoeste 19 Sur 0 1015.4 -1.8 44
2019-04-14 16:00:00 22.4 12 Sur 20 Sur 0 1016.4 -1.2 43
2019-04-14 15:00:00 22.7 14 Sur 22 Sur 0 1016.6 -1.4 42
2019-04-14 14:00:00 22.7 10 Sur 18 Sur 0 1017.2 -0.9 44
2019-04-14 13:00:00 22.1 8 Sudeste 15 Sudeste 0 1017.6 -0.4 49
2019-04-14 12:00:00 21 4 Norte 10 Norte 0 1018 -0.1 59
2019-04-14 11:00:00 18 4 Norte 14 Noroeste 0 1018.1 0.5 71
2019-04-14 10:00:00 16.2 6 Norte 17 Norte 0 1018 0.6 80
2019-04-14 09:00:00 14.1 0 Calma 19 Noroeste 0 1018.1 0.4 90
2019-04-14 08:00:00 13.8 7 Norte 16 Norte 0 1017.6 -0.4 87
2019-04-14 07:00:00 14.1 5 Norte 11 Norte 0 1017.4 -0.8 83
2019-04-14 06:00:00 14.4 3 Norte 13 Norte 0 1017.7 -1 80
2019-04-14 05:00:00 14.7 4 Norte 13 Noroeste 0 1018 -1 77
2019-04-14 04:00:00 15 4 Norte 17 Noroeste 0 1018.2 -1 75
2019-04-14 03:00:00 15.7 7 Norte 18 Norte 0 1018.7 -0.7 72
2019-04-14 02:00:00 16.3 10 Norte 23 Noroeste 0 1019 -0.5 71
2019-04-14 01:00:00 17.2 11 Noroeste 25 Noroeste 0 1019.2 0.3 68
2019-04-14 00:00:00 18 10 Noroeste 21 Noroeste 0 1019.4 1 65
2019-04-13 23:00:00 17.3 7 Noroeste 14 Noroeste 0 1019.5 1.3 62
2019-04-13 22:00:00 17.1 8 Oeste 24 Sudoeste 0 1018.9 0.8 73
2019-04-13 21:00:00 17.2 14 Sudoeste 30 Sudoeste 0 1018.4 0.2 60
2019-04-13 20:00:00 19 15 Sudoeste 33 Sudoeste 0 1018.2 -0.2 52
2019-04-13 19:00:00 19.9 19 Sudoeste 32 Sudoeste 0 1018.1 -0.7 44
2019-04-13 18:00:00 21 18 Sudoeste 31 Sudoeste 0 1018.2 -0.9 45
2019-04-13 17:00:00 19.8 14 Sudoeste 29 Sudoeste 0 1018.4 -1 49
2019-04-13 16:00:00 21.8 17 Sudoeste 27 Sudoeste 0 1018.8 -0.6 46
2019-04-13 15:00:00 21.5 15 Sudoeste 27 Sudoeste 0 1019.1 -0.3 46
2019-04-13 14:00:00 20.2 15 Sudoeste 23 Sudoeste 0 1019.4 -0.2 47
2019-04-13 13:00:00 22.7 4 Oeste 18 Sudoeste 0 1019.4 0.1 39
2019-04-13 12:00:00 20.2 3 Norte 15 Norte 0 1019.4 0.3 47
2019-04-13 11:00:00 17.4 8 Noroeste 17 Norte 0 1019.6 1.1 54
2019-04-13 10:00:00 15.3 6 Norte 21 Noroeste 0 1019.3 1.3 61
2019-04-13 09:00:00 13.2 5 Norte 13 Noroeste 0 1019.1 1.1 70
2019-04-13 08:00:00 12.4 4 Norte 13 Norte 0 1018.5 0.8 70
2019-04-13 07:00:00 12.9 5 Norte 14 Norte 0 1018 -0.3 65
2019-04-13 06:00:00 13.1 4 Norte 16 Noroeste 0 1018 -0.4 63
2019-04-13 05:00:00 13.8 7 Norte 24 Noroeste 0 1017.7 -0.9 58
2019-04-13 04:00:00 14 12 Norte 24 Norte 0 1018.3 -0.4 57
2019-04-13 03:00:00 14.2 12 Norte 25 Norte 0 1018.4 0 53
2019-04-13 02:00:00 14.7 12 Noroeste 24 Norte 0 1018.6 0.6 53
2019-04-13 01:00:00 15.3 9 Noroeste 21 Noroeste 0 1018.7 1.6 53
2019-04-13 00:00:00 16.7 9 Noroeste 18 Noroeste 0 1018.4 1.8 54
2019-04-12 23:00:00 16.4 7 Oeste 16 Oeste 0 1018 1.4 54
2019-04-12 22:00:00 16.7 11 Oeste 19 Oeste 0 1017.1 0.6 56
2019-04-12 21:00:00 17.5 10 Oeste 21 Sudoeste 0 1016.6 0 52
2019-04-12 20:00:00 19.3 14 Sudoeste 27 Sudoeste 0 1016.6 -0.5 49
2019-04-12 19:00:00 20.2 16 Sudoeste 31 Oeste 0 1016.5 -1.1 46
2019-04-12 18:00:00 21.5 16 Sudoeste 28 Sudoeste 0 1016.6 -1.3 45
2019-04-12 17:00:00 19.9 17 Sudoeste 26 Sudoeste 0 1017.1 -1.3 53
2019-04-12 16:00:00 20.2 15 Sudoeste 25 Sudoeste 0 1017.6 -0.9 51
2019-04-12 15:00:00 19.2 15 Sudoeste 23 Sudoeste 0 1017.9 -0.7 51
2019-04-12 14:00:00 20.7 14 Sudoeste 22 Sudoeste 0 1018.4 -0.1 49
2019-04-12 13:00:00 20.3 4 Norte 20 Noroeste 0 1018.5 0.2 44
2019-04-12 12:00:00 18.5 5 Norte 19 Noroeste 0 1018.6 0.4 53
2019-04-12 11:00:00 15.4 11 Noroeste 24 Norte 0 1018.5 0.7 62
2019-04-12 10:00:00 13.4 12 Noroeste 28 Noroeste 0 1018.3 0.8 70
2019-04-12 09:00:00 11.6 12 Norte 26 Norte 0 1018.2 0.9 77
2019-04-12 08:00:00 11.2 10 Norte 27 Norte 0 1017.8 0.3 76
2019-04-12 07:00:00 11.4 12 Norte 24 Noroeste 0 1017.5 0 73
2019-04-12 06:00:00 11.9 11 Norte 28 Norte 0 1017.3 -0.6 70
2019-04-12 05:00:00 12.4 10 Noroeste 26 Norte 0 1017.5 -0.8 69
2019-04-12 04:00:00 12.8 12 Norte 25 Noroeste 0 1017.5 -1 67
2019-04-12 03:00:00 13.5 12 Noroeste 27 Noroeste 0 1017.9 -0.6 64
2019-04-12 02:00:00 14.3 12 Noroeste 26 Noroeste 0 1018.3 -0.1 62
2019-04-12 01:00:00 14.9 13 Noroeste 27 Norte 0 1018.5 0.7 60
2019-04-12 00:00:00 15.3 10 Noroeste 26 Noroeste 0 1018.5 1.4 60
2019-04-11 23:00:00 16.3 11 Noroeste 27 Norte 0 1018.4 1.7 56
2019-04-11 22:00:00 17.5 11 Norte 24 Noroeste 0 1017.8 1 53
2019-04-11 21:00:00 19 7 Noroeste 18 Norte 0 1017.1 0.1 45
2019-04-11 20:00:00 19 9 Sudoeste 22 Oeste 0 1016.7 -0.6 55
2019-04-11 19:00:00 19.9 14 Sudoeste 25 Sudoeste 0 1016.8 -1 54
2019-04-11 18:00:00 21 16 Sudoeste 28 Oeste 0 1017 -1.3 49
2019-04-11 17:00:00 20.6 13 Sudoeste 24 Sudoeste 0 1017.3 -1.5 47
2019-04-11 16:00:00 19.7 16 Sudoeste 24 Sudoeste 0 1017.8 -1.7 48
2019-04-11 15:00:00 20.3 8 Norte 23 Noroeste 0 1018.3 -1.4 39
2019-04-11 14:00:00 19.5 9 Norte 24 Norte 0 1018.8 -0.7 44
2019-04-11 13:00:00 17.6 9 Noroeste 19 Noroeste 0 1019.5 0.1 51
2019-04-11 12:00:00 16 10 Noroeste 24 Noroeste 0 1019.7 0.9 60
2019-04-11 11:00:00 13.9 14 Noroeste 30 Noroeste 0 1019.5 1.3 67
2019-04-11 10:00:00 12.6 13 Noroeste 30 Noroeste 0 1019.4 1.1 73
2019-04-11 09:00:00 11.3 13 Norte 30 Norte 0 1018.8 0.6 80
2019-04-11 08:00:00 11 13 Noroeste 31 Noroeste 0 1018.2 -0.3 80
2019-04-11 07:00:00 11.1 10 Norte 30 Noroeste 0 1018.3 -0.3 80
2019-04-11 06:00:00 11.5 15 Norte 33 Norte 0 1018.2 -0.7 76
2019-04-11 05:00:00 11.3 11 Norte 23 Noroeste 0 1018.5 -1 76
2019-04-11 04:00:00 11.7 13 Norte 27 Norte 0 1018.6 -0.9 73
2019-04-11 03:00:00 12.2 10 Noroeste 19 Noroeste 0 1018.9 -0.3 70
2019-04-11 02:00:00 13 10 Noroeste 20 Noroeste 0 1019.5 0.6 67
2019-04-11 01:00:00 13.4 6 Noroeste 17 Noroeste 0 1019.5 1.2 67
2019-04-11 00:00:00 14.1 6 Noroeste 20 Noroeste 0 1019.2 1.9 69
2019-04-10 23:00:00 15 8 Noroeste 22 Oeste 0 1018.9 2.1 63
2019-04-10 22:00:00 15.7 6 Noroeste 19 Noroeste 0 1018.3 1.6 59
2019-04-10 21:00:00 16.8 8 Noroeste 31 Noroeste 0 1017.3 0.8 53
2019-04-10 20:00:00 18.3 12 Noroeste 28 Noroeste 0 1016.8 0 49
2019-04-10 19:00:00 18.8 9 Noroeste 33 Noroeste 0 1016.7 -0.6 48
2019-04-10 18:00:00 20.7 12 Noroeste 31 Noroeste 0 1016.5 -1.3 42
2019-04-10 17:00:00 19.9 10 Noroeste 35 Noroeste 0 1016.8 -1.8 43
2019-04-10 16:00:00 20.3 11 Noroeste 30 Noroeste 0 1017.3 -2.1 42
2019-04-10 15:00:00 19.1 9 Noroeste 27 Noroeste 0 1017.8 -1.6 46
2019-04-10 14:00:00 18.4 8 Noroeste 22 Noroeste 0 1018.6 -0.9 49
2019-04-10 13:00:00 16.6 8 Noroeste 27 Norte 0 1019.4 0 56
2019-04-10 12:00:00 16.1 10 Noroeste 23 Norte 0 1019.4 0.3 57
2019-04-10 11:00:00 15.1 3 Noroeste 11 Noroeste 0 1019.5 1 64
2019-04-10 10:00:00 12.7 2 Noroeste 8 Noroeste 0 1019.4 0.9 75
2019-04-10 09:00:00 9.8 0 Calma 7 Norte 0 1019.1 0.5 90
2019-04-10 08:00:00 9 3 Noroeste 6 Noroeste 0 1018.5 -0.3 90
2019-04-10 07:00:00 9.5 4 Noroeste 8 Noroeste 0 1018.5 -0.3 88
2019-04-10 06:00:00 9.6 3 Noroeste 9 Noroeste 0 1018.6 -0.7 87
2019-04-10 05:00:00 10.2 4 Noroeste 8 Oeste 0 1018.8 -0.5 85
2019-04-10 04:00:00 10.5 4 Oeste 9 Noroeste 0 1018.8 -0.5 82
2019-04-10 03:00:00 11.4 5 Noroeste 14 Noroeste 0 1019.3 0 77
2019-04-10 02:00:00 12.1 6 Noroeste 19 Noroeste 0 1019.3 0.1 76
2019-04-10 01:00:00 12.6 4 Noroeste 15 Norte 0 1019.3 1.1 72
2019-04-10 00:00:00 13.2 5 Noroeste 13 Noroeste 0 1019.3 1.8 67
2019-04-09 23:00:00 14 4 Noroeste 22 Oeste 0 1019.2 2.2 62
2019-04-09 22:00:00 14.9 5 Noroeste 24 Noroeste 0 1018.2 1.6 53
2019-04-09 21:00:00 16.3 10 Noroeste 25 Noroeste 0 1017.5 1 50
2019-04-09 20:00:00 18.1 12 Noroeste 31 Noroeste 0 1017 0.4 43
2019-04-09 19:00:00 19.5 12 Noroeste 28 Noroeste 0 1016.6 -0.7 41
2019-04-09 18:00:00 19.9 14 Noroeste 28 Noroeste 0 1016.5 -1.1 39
2019-04-09 17:00:00 20.4 11 Noroeste 33 Sudoeste 0 1016.6 -1.1 39
2019-04-09 16:00:00 18.8 18 Sudoeste 33 Sudoeste 0 1017.3 -1.1 56
2019-04-09 15:00:00 17.8 17 Sudoeste 30 Sudoeste 0 1017.6 -1 52
2019-04-09 14:00:00 20.2 14 Sudoeste 26 Oeste 0 1017.7 -0.7 46
2019-04-09 13:00:00 17.4 9 Sudoeste 24 Sur 0 1018.4 -0.2 54
2019-04-09 12:00:00 18.5 10 Noroeste 24 Noroeste 0 1018.6 0.3 45
2019-04-09 11:00:00 16.7 7 Noroeste 15 Oeste 0 1018.4 0.8 55
2019-04-09 10:00:00 13.1 3 Noroeste 13 Oeste 0 1018.6 1.2 79
2019-04-09 09:00:00 11.3 3 Noroeste 8 Oeste 0 1018.3 0.8 89
2019-04-09 08:00:00 10 3 Oeste 7 Oeste 0 1017.6 0.1 87
2019-04-09 07:00:00 11.4 5 Oeste 12 Oeste 0 1017.4 -0.4 87
2019-04-09 06:00:00 10.2 3 Noroeste 6 Oeste 0 1017.5 -0.6 89
2019-04-09 05:00:00 9.5 0 Calma 4 Oeste 0 1017.5 -0.7 86
2019-04-09 04:00:00 9.4 2 Noroeste 7 Oeste 0 1017.8 -0.2 84
2019-04-09 03:00:00 10.4 5 Oeste 7 Oeste 0 1018.1 0.3 78
2019-04-09 02:00:00 10.7 5 Sudoeste 9 Oeste 0 1018.2 0.5 74
2019-04-09 01:00:00 11.9 4 Oeste 11 Oeste 0 1018 1.3 68
2019-04-09 00:00:00 12.6 6 Noroeste 12 Noroeste 0 1017.8 1.8 64
2019-04-08 23:00:00 13.2 6 Noroeste 12 Noroeste 0 1017.7 2.4 58
2019-04-08 22:00:00 14.8 8 Noroeste 21 Noroeste 0 1016.7 1.9 51
2019-04-08 21:00:00 16.1 8 Noroeste 25 Noroeste 0 1016 1.4 47
2019-04-08 20:00:00 18 9 Noroeste 22 Noroeste 0 1015.3 0.1 43
2019-04-08 19:00:00 18.2 11 Oeste 37 Oeste 0 1014.8 -0.7 56
2019-04-08 18:00:00 17.8 25 Sudoeste 42 Sudoeste 0 1014.6 -1.3 65
2019-04-08 17:00:00 17.6 21 Sudoeste 41 Sudoeste 0 1015.2 -0.8 71
2019-04-08 16:00:00 19.2 14 Sudoeste 32 Oeste 0.1 1015.5 -0.9 65
2019-04-08 15:00:00 16.6 18 Sudoeste 31 Sudoeste 0 1015.9 -0.3 75
2019-04-08 14:00:00 16.5 8 Sudoeste 17 Sur 0.1 1016 0.2 82
2019-04-08 13:00:00 17 4 Sudoeste 12 Noroeste 0 1016.4 1.2 71
2019-04-08 12:00:00 17.1 5 Norte 17 Noroeste 0 1016.2 1.2 72
2019-04-08 11:00:00 16 8 Norte 17 Noroeste 0 1015.8 1 79
2019-04-08 10:00:00 15.6 4 Noroeste 22 Oeste 2.2 1015.2 0.7 91
2019-04-08 09:00:00 15.4 11 Oeste 21 Oeste 1.4 1015 0.4 91
2019-04-08 08:00:00 15.5 7 Oeste 20 Sudoeste 0.1 1014.8 0 89
2019-04-08 07:00:00 15.1 8 Sudoeste 18 Sudoeste 0 1014.5 -0.8 89
2019-04-08 06:00:00 15.1 9 Sudoeste 18 Sudoeste 0 1014.6 -1.2 89
2019-04-08 05:00:00 15.1 10 Sudoeste 19 Sudoeste 0 1014.8 -1.1 91
2019-04-08 04:00:00 14.2 5 Sudoeste 14 Oeste 0 1015.3 -0.7 91
2019-04-08 03:00:00 14.2 8 Oeste 18 Oeste 0 1015.8 -0.2 89
2019-04-08 02:00:00 14.9 9 Oeste 16 Oeste 0 1015.9 -0.1 89
2019-04-08 01:00:00 15.1 6 Oeste 24 Sudoeste 0 1016 0.4 87
2019-04-08 00:00:00 15.4 13 Sudoeste 23 Sudoeste 0 1016 0.9 87
2019-04-07 23:00:00 15.4 9 Sudoeste 24 Sudoeste 0 1016 1.3 86
2019-04-07 22:00:00 16.1 12 Oeste 27 Sudoeste 0 1015.6 1.3 82
2019-04-07 21:00:00 16.3 14 Sudoeste 29 Sudoeste 0 1015.1 1.1 81
2019-04-07 20:00:00 17.3 14 Sudoeste 27 Oeste 0 1014.7 1.6 68
2019-04-07 19:00:00 18.6 10 Oeste 31 Oeste 0 1014.3 0.7 59
2019-04-07 18:00:00 19 15 Noroeste 34 Oeste 0.1 1014 0 65
2019-04-07 17:00:00 18.6 19 Oeste 32 Sudoeste 0.2 1013.1 -1.8 80
2019-04-07 16:00:00 17 23 Sudoeste 43 Oeste 0.1 1013.6 -1.6 90
2019-04-07 15:00:00 15.5 15 Sudoeste 27 Sudoeste 3.7 1014 -0.8 93
2019-04-07 14:00:00 15.2 12 Sudoeste 27 Sudoeste 0 1014.9 0.2 87
2019-04-07 13:00:00 17 17 Sudoeste 27 Sudoeste 0 1015.2 1 67
2019-04-07 12:00:00 16.6 7 Sudoeste 13 Oeste 0 1014.8 1.2 62
2019-04-07 11:00:00 15.2 7 Oeste 15 Sudoeste 0 1014.7 1.6 63
2019-04-07 10:00:00 13.8 4 Sudoeste 10 Oeste 0 1014.2 1.4 72
2019-04-07 09:00:00 11.9 6 Oeste 10 Sudoeste 0 1013.6 0.9 83
2019-04-07 08:00:00 10.7 3 Oeste 8 Oeste 0 1013.1 0.4 83
2019-04-07 07:00:00 11.6 2 Oeste 12 Oeste 0 1012.8 -0.2 83
2019-04-07 06:00:00 11.6 7 Oeste 12 Oeste 0 1012.7 -0.5 83
2019-04-07 05:00:00 12 8 Sudoeste 17 Sudoeste 0 1012.7 -0.7 80
2019-04-07 04:00:00 11.6 7 Oeste 12 Oeste 0 1013 -0.3 76
2019-04-07 03:00:00 11.8 8 Noroeste 15 Oeste 0 1013.2 0.2 75
2019-04-07 02:00:00 12.2 7 Oeste 16 Sudoeste 0 1013.4 0.7 74
2019-04-07 01:00:00 12.2 11 Oeste 20 Oeste 0 1013.3 1.4 76
2019-04-07 00:00:00 11.4 7 Oeste 16 Oeste 0 1013 1.6 71
2019-04-06 23:00:00 12.3 8 Oeste 18 Noroeste 0 1012.7 2.1 67
2019-04-06 22:00:00 13.5 10 Oeste 25 Noroeste 0 1011.9 2.5 60
2019-04-06 21:00:00 14.3 15 Oeste 32 Noroeste 0 1011.4 2 54
2019-04-06 20:00:00 15.4 10 Noroeste 32 Noroeste 0 1010.6 1.7 53
2019-04-06 19:00:00 16.9 15 Oeste 38 Oeste 0 1009.4 0.5 48
2019-04-06 18:00:00 14.2 16 Noroeste 40 Oeste 0.1 1009.4 0.1 64
2019-04-06 17:00:00 17.9 15 Oeste 39 Oeste 0.1 1008.9 -0.7 48
2019-04-06 16:00:00 17.3 13 Oeste 35 Oeste 0 1008.9 -0.6 52
2019-04-06 15:00:00 17.7 14 Oeste 33 Oeste 0 1009.3 -0.6 49
2019-04-06 14:00:00 16.2 9 Oeste 39 Oeste 0.2 1009.6 -0.2 63
2019-04-06 13:00:00 17.6 12 Oeste 23 Oeste 0 1009.5 0.1 48
2019-04-06 12:00:00 16.3 14 Oeste 26 Oeste 0 1009.9 0.9 53
2019-04-06 11:00:00 14.7 10 Oeste 22 Oeste 0 1009.8 1.1 62
2019-04-06 10:00:00 12.6 8 Oeste 18 Oeste 0 1009.4 0.9 68
2019-04-06 09:00:00 10.6 5 Oeste 9 Oeste 0 1009 0.7 77
2019-04-06 08:00:00 10.7 3 Oeste 10 Oeste 0 1008.7 0.4 74
2019-04-06 07:00:00 10.4 4 Noroeste 15 Oeste 0 1008.5 0 74
2019-04-06 06:00:00 11 10 Oeste 19 Noroeste 0 1008.3 -0.5 75
2019-04-06 05:00:00 10.2 6 Oeste 15 Oeste 0 1008.3 -0.6 77
2019-04-06 04:00:00 10.3 8 Oeste 17 Oeste 0 1008.5 -0.6 77
2019-04-06 03:00:00 10.6 11 Oeste 20 Oeste 0 1008.8 -0.1 77
2019-04-06 02:00:00 10.5 8 Oeste 16 Oeste 0 1008.9 0.4 75
2019-04-06 01:00:00 10.7 11 Oeste 21 Oeste 0 1009.1 1.7 74
2019-04-06 00:00:00 11.3 12 Oeste 21 Oeste 0 1008.9 2.4 72
2019-04-05 23:00:00 11.2 10 Oeste 19 Sudoeste 0 1008.5 2.9 72
2019-04-05 22:00:00 12.1 12 Oeste 30 Noroeste 0 1007.4 2.1 59
2019-04-05 21:00:00 12.8 12 Noroeste 30 Oeste 0 1006.5 1.9 52
2019-04-05 20:00:00 13.4 13 Noroeste 41 Noroeste 0 1005.6 1.1 53
2019-04-05 19:00:00 14.2 17 Oeste 37 Norte 0 1005.3 0.4 53
2019-04-05 18:00:00 15.3 17 Oeste 44 Oeste 0.1 1004.6 0.1 55
2019-04-05 17:00:00 15.4 17 Sudoeste 33 Oeste 0.2 1004.5 -0.3 63
2019-04-05 16:00:00 12.7 14 Oeste 33 Sudoeste 1 1004.9 0.5 59
2019-04-05 15:00:00 16.2 16 Noroeste 33 Oeste 0 1004.5 -0.1 44
2019-04-05 14:00:00 12.9 17 Noroeste 44 Noroeste 0 1004.8 1.2 56
2019-04-05 13:00:00 14.2 14 Noroeste 30 Noroeste 0 1004.4 2.1 48
2019-04-05 12:00:00 13.1 13 Noroeste 39 Noroeste 0 1004.6 2.9 55
2019-04-05 11:00:00 12.8 8 Noroeste 22 Noroeste 0 1003.6 2.5 69
2019-04-05 10:00:00 11.5 10 Noroeste 25 Noroeste 0 1002.3 1.2 73
2019-04-05 09:00:00 11.5 12 Noroeste 30 Oeste 0 1001.7 0.4 83
2019-04-05 08:00:00 11.1 3 Noroeste 8 Sudoeste 0 1001.1 -0.6 91
2019-04-05 07:00:00 11.9 5 Sudoeste 11 Oeste 0.1 1001.1 -1.3 89
2019-04-05 06:00:00 12 8 Oeste 22 Oeste 0 1001.3 -2.3 89
2019-04-05 05:00:00 11.9 7 Sudoeste 40 Oeste 3.8 1001.7 -2.7 89
2019-04-05 04:00:00 13.4 16 Oeste 30 Oeste 0 1002.4 -2.5 89
2019-04-05 03:00:00 12.6 7 Oeste 18 Sudoeste 0.8 1003.6 -1.7 89
2019-04-05 02:00:00 12.5 8 Oeste 16 Sudoeste 0.3 1004.4 -0.8 86
2019-04-05 01:00:00 12.3 8 Oeste 21 Oeste 0.6 1004.9 0.3 79
2019-04-05 00:00:00 13.6 11 Oeste 19 Oeste 0 1005.3 1.5 54
2019-04-04 23:00:00 13.4 9 Oeste 22 Oeste 0 1005.2 2 51
2019-04-04 22:00:00 13.8 9 Oeste 28 Noroeste 0 1004.6 1.3 48
2019-04-04 21:00:00 15.1 9 Noroeste 26 Noroeste 0 1003.8 0 45
2019-04-04 20:00:00 17.5 10 Noroeste 28 Sudoeste 0 1003.2 -1.1 42
2019-04-04 19:00:00 18.2 19 Sudoeste 35 Sudoeste 0 1003.3 -1.7 46
2019-04-04 18:00:00 18.7 21 Sudoeste 41 Sudoeste 0 1003.8 -1.8 44
2019-04-04 17:00:00 18.5 23 Sudoeste 37 Sudoeste 0 1004.3 -2 43
2019-04-04 16:00:00 19 21 Sudoeste 32 Sudoeste 0 1005 -1.9 38
2019-04-04 15:00:00 18 7 Noroeste 19 Norte 0 1005.6 -1.5 32
2019-04-04 14:00:00 17.4 9 Noroeste 24 Norte 0 1006.3 -0.7 34
2019-04-04 13:00:00 15.2 9 Norte 24 Norte 0 1006.9 0 38
2019-04-04 12:00:00 14.2 10 Noroeste 23 Noroeste 0 1007.1 0.5 45
2019-04-04 11:00:00 12.1 11 Norte 27 Noroeste 0 1007 1.3 53
2019-04-04 10:00:00 10.1 10 Norte 26 Noroeste 0 1006.9 1.7 66
2019-04-04 09:00:00 8.4 12 Noroeste 26 Norte 0 1006.6 1.6 75
2019-04-04 08:00:00 8.2 12 Noroeste 28 Noroeste 0 1005.7 0.6 75
2019-04-04 07:00:00 8.7 17 Noroeste 32 Noroeste 0 1005.2 -0.1 71
2019-04-04 06:00:00 9.1 15 Noroeste 36 Noroeste 0 1005 -0.8 68
2019-04-04 05:00:00 9.3 17 Noroeste 34 Norte 0 1005.1 -1.6 65
2019-04-04 04:00:00 9.8 12 Norte 28 Noroeste 0 1005.3 -1.4 64
2019-04-04 03:00:00 10.5 13 Norte 34 Noroeste 0 1005.8 -0.7 60
2019-04-04 02:00:00 11.4 13 Noroeste 35 Noroeste 0 1006.7 0.4 55
2019-04-04 01:00:00 12.3 14 Noroeste 30 Norte 0 1006.7 1.1 51
2019-04-04 00:00:00 13.6 13 Norte 30 Norte 0 1006.5 1.4 46
2019-04-03 23:00:00 14.9 12 Norte 28 Norte 0 1006.3 1 45
2019-04-03 22:00:00 16 6 Noroeste 23 Norte 0 1005.6 0 43
2019-04-03 21:00:00 17.2 10 Noroeste 26 Norte 0 1005.1 -0.9 41
2019-04-03 20:00:00 18.7 9 Noroeste 27 Norte 0 1005.3 -1.4 38
2019-04-03 19:00:00 19.7 11 Noroeste 29 Noroeste 0 1005.6 -1.9 38
2019-04-03 18:00:00 20.3 12 Noroeste 30 Norte 0 1006 -2.5 38
2019-04-03 17:00:00 21 10 Noroeste 30 Noroeste 0 1006.7 -2.6 36
2019-04-03 16:00:00 20.3 12 Noroeste 28 Noroeste 0 1007.5 -2.3 37
2019-04-03 15:00:00 20.4 11 Noroeste 28 Norte 0 1008.5 -1.6 40
2019-04-03 14:00:00 18.5 14 Noroeste 37 Noroeste -- 1009.3 -0.7 42
2019-04-03 13:00:00 17.2 17 Norte 39 Norte 0 1009.8 -0.2 47
2019-04-03 12:00:00 15.4 16 Noroeste 37 Norte 0 1010.1 -0.2 52
2019-04-03 11:00:00 13.4 18 Norte 45 Norte 0 1010 -0.4 61
2019-04-03 10:00:00 11.9 13 Norte 36 Norte 0 1010 -0.4 69
2019-04-03 09:00:00 10.6 14 Norte 32 Noroeste 0 1010.3 -0.7 76
2019-04-03 08:00:00 10.5 14 Norte 30 Noroeste 0 1010.4 -1.3 82
2019-04-03 07:00:00 11.1 14 Norte 30 Noroeste 0 1010.4 -2 82
2019-04-03 06:00:00 11.9 10 Norte 25 Norte 0 1011 -2.2 81
2019-04-03 05:00:00 12.7 11 Noroeste 24 Norte 0 1011.7 -1.9 79
2019-04-03 04:00:00 13.3 11 Norte 21 Norte 0 1012.4 -1.4 76
2019-04-03 03:00:00 13.9 10 Norte 20 Norte 0 1013.2 -0.8 73
2019-04-03 02:00:00 14.3 8 Noroeste 19 Noroeste 0 1013.6 -0.4 72
2019-04-03 01:00:00 14.9 10 Noroeste 18 Noroeste 0 1013.8 0.3 71
2019-04-03 00:00:00 14 4 Noroeste 10 Oeste 0 1014 0.6 82
2019-04-02 23:00:00 14.7 4 Sudoeste 16 Oeste 0 1014 0.3 76
2019-04-02 22:00:00 15.9 10 Oeste 21 Sudoeste 0 1013.5 -0.2 76
2019-04-02 21:00:00 16.6 12 Sudoeste 22 Sudoeste 0 1013.4 -0.7 75
2019-04-02 20:00:00 18.2 13 Sudoeste 21 Sudoeste 0 1013.7 -0.6 60
2019-04-02 19:00:00 18.9 12 Sudoeste 25 Sudoeste 0 1013.7 -1.3 58
2019-04-02 18:00:00 19 15 Sudoeste 26 Sudoeste 0 1014.1 -1.4 63
2019-04-02 17:00:00 20.4 11 Sur 21 Sur 0 1014.3 -2 55
2019-04-02 16:00:00 19.4 13 Sur 23 Sur 0 1015 -1.7 57
2019-04-02 15:00:00 19.7 9 Sudoeste 17 Sudoeste 0 1015.5 -1.2 58
2019-04-02 14:00:00 18.8 8 Sudoeste 13 Sur 0 1016.3 -0.2 61
2019-04-02 13:00:00 17.3 4 Este 13 Este 0 1016.7 0.6 67
2019-04-02 12:00:00 15.3 4 Nordeste 17 Noroeste 0 1016.7 0.5 75
2019-04-02 11:00:00 14.1 5 Norte 18 Norte 0 1016.5 0.9 81
2019-04-02 10:00:00 12.4 6 Norte 16 Noroeste 0 1016.1 1 91
2019-04-02 09:00:00 12 0 Calma 14 Nordeste 0 1016.2 1.2 93
2019-04-02 08:00:00 11.5 3 Norte 19 Norte 0 1015.6 0 94
2019-04-02 07:00:00 11 4 Norte 12 Norte 0 1015.1 -0.5 90
2019-04-02 06:00:00 11.7 4 Norte 12 Norte 0 1015 -0.5 88
2019-04-02 05:00:00 11.6 3 Norte 10 Noroeste 0 1015.6 -0.1 88
2019-04-02 04:00:00 11.9 0 Calma 9 Noroeste 0 1015.6 -0.7 87
2019-04-02 03:00:00 12.4 0 Calma 8 Norte 0 1015.5 0 84
2019-04-02 02:00:00 13.1 0 Calma 9 Norte 0 1015.7 0.4 82
2019-04-02 01:00:00 12.6 3 Noroeste 7 Noroeste 0 1016.3 1.9 82
2019-04-02 00:00:00 13.3 3 Noroeste 10 Norte 0 1015.5 1.9 76
2019-04-01 23:00:00 13.8 0 Calma 9 Nordeste 0 1015.3 2.5 73
2019-04-01 22:00:00 15.2 4 Oeste 17 Sudoeste 0 1014.4 1.9 72
2019-04-01 21:00:00 16.5 9 Sudoeste 26 Sudoeste 0 1013.6 1.1 70
2019-04-01 20:00:00 17.5 15 Sudoeste 30 Sudoeste 0 1012.8 0.3 66
2019-04-01 19:00:00 18.5 19 Sudoeste 33 Sudoeste 0 1012.5 -0.3 63
2019-04-01 18:00:00 18.9 18 Sudoeste 30 Sudoeste 0 1012.5 -0.2 59
2019-04-01 17:00:00 19.5 18 Sudoeste 30 Sudoeste 0 1012.5 -0.6 57
2019-04-01 16:00:00 20.8 14 Sudoeste 25 Sudoeste 0 1012.8 -0.2 55
2019-04-01 15:00:00 19.2 14 Sudoeste 23 Sudoeste 0 1012.7 -0.2 61
2019-04-01 14:00:00 18.6 12 Sudoeste 22 Sur 0 1013.1 0.6 64
2019-04-01 13:00:00 18.1 10 Sur 17 Sur 0 1013 1 61
2019-04-01 12:00:00 17.9 5 Sur 13 Sur 0 1012.9 1.5 66
2019-04-01 11:00:00 16.8 4 Este 10 Este 0 1012.5 1.6 73
2019-04-01 10:00:00 13.6 0 Calma 6 Norte 0 1012 1.6 86
2019-04-01 09:00:00 11.5 2 Norte 9 Norte 0 1011.4 1.4 92
2019-04-01 08:00:00 10.6 0 Calma 4 Nordeste 0 1010.9 0.7 92
2019-04-01 07:00:00 10.9 0 Calma 8 Este 0 1010.4 -0.1 91
2019-04-01 06:00:00 11.3 3 Nordeste 7 Este 0 1010 -0.9 90
2019-04-01 05:00:00 12.3 3 Norte 10 Noroeste 0 1010.2 -0.7 88
2019-04-01 04:00:00 13.1 0 Calma 5 Norte 0 1010.5 -0.1 86
2019-04-01 03:00:00 12.4 3 Norte 9 Noroeste 0 1010.9 0.2 90
2019-04-01 02:00:00 11.3 0 Calma 5 Norte 0 1010.9 0.4 85
2019-04-01 01:00:00 11.9 0 Calma 6 Norte 0 1010.6 0.5 83
2019-04-01 00:00:00 12 0 Calma 4 Sudeste 0 1010.7 1 80
2019-03-31 23:00:00 12.9 0 Calma 3 Nordeste 0 1010.5 1 76
2019-03-31 22:00:00 14.2 0 Calma 8 Norte 0 1010.1 0.6 72
2019-03-31 21:00:00 15.9 0 Calma 7 Oeste 0 1009.7 0.2 73
2019-03-31 20:00:00 16.9 5 Sudoeste 15 Sudoeste 0 1009.5 0.1 68
2019-03-31 19:00:00 17.4 8 Sudoeste 17 Sudoeste 0 1009.5 -0.1 67
2019-03-31 18:00:00 18 10 Sudoeste 20 Sudoeste 0 1009.5 -0.8 64
2019-03-31 17:00:00 18.1 12 Sudoeste 19 Sudoeste 0 1009.4 -1.6 60
2019-03-31 16:00:00 18 12 Sudoeste 18 Sudoeste 0 1009.6 -1.9 62
2019-03-31 15:00:00 19.2 12 Sudoeste 20 Sudoeste 0 1010.3 -1.4 57
2019-03-31 14:00:00 19.4 10 Sur 17 Sur 0 1011 -0.4 58
2019-03-31 13:00:00 18.1 3 Sudeste 14 Sur 0 1011.5 0.4 65
2019-03-31 12:00:00 17.9 4 Este 14 Este 0 1011.7 0.8 67
2019-03-31 11:00:00 16.1 4 Este 10 Este 0 1011.4 0.9 76
2019-03-31 10:00:00 15.4 3 Nordeste 9 Este 0 1011.1 0.7 82
2019-03-31 09:00:00 14.2 0 Calma 4 Norte 0 1010.9 -0.1 86
2019-03-31 08:00:00 13.7 0 Calma 6 Sur 0 1010.5 -1.1 84
2019-03-31 07:00:00 14.3 5 Sur 11 Sur 0 1010.4 -1.9 82
2019-03-31 06:00:00 14.4 6 Sur 10 Sur 0 1011 -1.9 83
2019-03-31 05:00:00 13.5 0 Calma 9 Sur 0 1011.6 -1.9 84
2019-03-31 03:00:00 15.3 0 Calma 6 Este 0 1012.9 -1.2 82
2019-03-31 01:00:00 15.1 0 Calma 2 Norte 0 1013.5 -0.3 85
2019-03-31 00:00:00 14.6 0 Calma 5 Norte 0 1014 0.5 87
2019-03-30 23:00:00 13.8 2 Norte 5 Norte 0 1014.1 0.9 87
2019-03-30 22:00:00 13.9 0 Calma -- -- 0 1013.8 0.5 83
2019-03-30 21:00:00 14.6 0 Calma 9 Sudoeste 0 1013.5 0.7 77
2019-03-30 20:00:00 16.2 8 Sur 20 Sur 0 1013.2 0.7 71
2019-03-30 19:00:00 17.2 12 Sudoeste 20 Sur 0 1013.3 0.3 69
2019-03-30 18:00:00 18.3 11 Sur 21 Sur 0 1012.8 -0.4 57
2019-03-30 17:00:00 19.6 13 Sudoeste 21 Sudoeste 0 1012.5 -1.6 48
2019-03-30 16:00:00 19.8 12 Sur 18 Sur 0 1013 -2.2 46
2019-03-30 15:00:00 20.8 10 Sur 17 Sudoeste 0 1013.2 -2.7 45
2019-03-30 14:00:00 20.3 8 Sudeste 19 Sudeste 0 1014.1 -2.2 46
2019-03-30 13:00:00 18.9 11 Sudeste 25 Sudeste 0 1015.2 -1 48
2019-03-30 12:00:00 19.4 10 Sudeste 23 Este 0 1015.9 -0.4 48
2019-03-30 11:00:00 18 11 Este 23 Este 0 1016.3 -0.1 52
2019-03-30 10:00:00 15.8 11 Este 26 Este 0 1016.2 0 60
2019-03-30 09:00:00 13.7 8 Este 18 Este 0 1016.3 0.1 69
2019-03-30 08:00:00 10.3 3 Nordeste 11 Noroeste 0 1016.4 -0.1 86
2019-03-30 07:00:00 9.2 0 Calma 8 Nordeste 0 1016.2 -0.7 89
2019-03-30 06:00:00 9.1 2 Nordeste 6 Nordeste 0 1016.2 -1.5 89
2019-03-30 05:00:00 9.7 0 Calma 7 Nordeste 0 1016.5 -1.4 89
2019-03-30 04:00:00 10 0 Calma 6 Nordeste 0 1016.9 -1.5 87
2019-03-30 03:00:00 11.5 0 Calma 7 Nordeste 0 1017.7 -0.7 85
2019-03-30 02:00:00 13.4 4 Este 15 Sudeste 0 1017.9 -0.6 74
2019-03-30 01:00:00 14.3 9 Sudeste 14 Sudeste 0 1018.4 -0.3 74
2019-03-30 00:00:00 14.1 4 Este 15 Sudeste 0 1018.4 0.3 73
2019-03-29 23:00:00 14.9 6 Sudeste 18 Este 0 1018.5 0.8 72
2019-03-29 22:00:00 15 5 Sudeste 16 Sur 0 1018.7 0.8 70
2019-03-29 21:00:00 15.6 2 Sudeste 11 Sur 0 1018.1 0.3 70
2019-03-29 20:00:00 16.5 5 Sudeste 13 Sur 0 1017.7 -0.1 64
2019-03-29 19:00:00 17 9 Sur 21 Sur 0 1017.9 -0.4 64
2019-03-29 18:00:00 17.6 13 Sur 24 Sudeste 0 1017.8 -1.1 59
2019-03-29 17:00:00 19.1 11 Sudeste 27 Sudeste 0 1017.8 -1.6 56
2019-03-29 16:00:00 19.2 16 Sur 26 Sur 0 1018.3 -1.5 51
2019-03-29 15:00:00 19.4 14 Sudeste 29 Sudeste 0 1018.9 -1.7 48
2019-03-29 14:00:00 19.3 13 Sudeste 26 Sudeste 0 1019.4 -1.2 44
2019-03-29 13:00:00 19.2 12 Sudeste 26 Este 0 1019.8 -0.8 45
2019-03-29 12:00:00 17.5 13 Sudeste 26 Sudeste 0 1020.6 0.2 49
2019-03-29 11:00:00 16 12 Sudeste 24 Este 0 1020.6 0.5 56
2019-03-29 10:00:00 15 9 Este 17 Sudeste 0 1020.6 0.8 57
2019-03-29 09:00:00 12.5 7 Este 17 Este 0 1020.4 0.8 62
2019-03-29 08:00:00 9.3 4 Este 15 Este 0 1020.1 0.3 71
2019-03-29 07:00:00 8.9 6 Nordeste 14 Nordeste 0 1019.8 -0.3 70
2019-03-29 06:00:00 8.7 6 Nordeste 12 Nordeste 0 1019.6 -0.6 70
2019-03-29 05:00:00 8.6 6 Este 11 Nordeste 0 1019.8 -0.3 66
2019-03-29 04:00:00 9.1 7 Este 14 Este 0 1020.1 -0.1 67
2019-03-29 03:00:00 10.3 6 Este 14 Este 0 1020.2 -0.2 64
2019-03-29 02:00:00 10.2 5 Nordeste 10 Nordeste 0 1020.1 -0.5 71
2019-03-29 01:00:00 9.8 0 Calma 7 Nordeste 0 1020.2 -0.5 79
2019-03-29 00:00:00 11.2 0 Calma 8 Este 0 1020.4 -0.2 77
2019-03-28 23:00:00 14 4 Sudeste 9 Sudeste 0 1020.6 0.8 63
2019-03-28 22:00:00 14.8 4 Sudeste 12 Este 0 1020.7 1.2 62
2019-03-28 21:00:00 15.4 3 Este 19 Sudeste 0 1020.6 1.2 60
2019-03-28 20:00:00 16.1 7 Sudeste 17 Sur 0 1019.8 0.4 58
2019-03-28 19:00:00 17.5 10 Sur 19 Sur 0 1019.5 -0.2 54
2019-03-28 18:00:00 18.2 11 Sur 24 Sur 0 1019.4 -0.8 51
2019-03-28 17:00:00 18.8 14 Sur 23 Sur 0 1019.4 -1.6 43
2019-03-28 16:00:00 20.5 12 Sur 23 Sur 0 1019.7 -1.9 37
2019-03-28 15:00:00 19.6 11 Sudeste 24 Sudeste 0 1020.2 -2.1 38
2019-03-28 14:00:00 19.3 12 Sur 23 Sudeste 0 1021 -1.8 43
2019-03-28 13:00:00 18.5 6 Sudeste 25 Sudeste 0 1021.6 -1.1 43
2019-03-28 12:00:00 17.7 10 Este 23 Sudeste 0 1022.3 0 45
2019-03-28 11:00:00 16.1 13 Sudeste 27 Este 0 1022.8 0.8 48
2019-03-28 10:00:00 14.7 11 Este 26 Este 0 1022.7 1.2 56
2019-03-28 09:00:00 12.7 13 Este 27 Este 0 1022.3 1.4 65
2019-03-28 08:00:00 9.4 7 Este 12 Este 0 1022 1.3 76
2019-03-28 07:00:00 8.4 6 Nordeste 12 Este 0 1021.5 0.7 78
2019-03-28 06:00:00 7.8 2 Norte 11 Nordeste 0 1020.9 -0.6 80
2019-03-28 05:00:00 7.9 0 Calma 8 Noroeste 0 1020.7 -1.2 82
2019-03-28 04:00:00 9 0 Calma 7 Norte 0 1020.8 -1.4 74
2019-03-28 03:00:00 10.1 2 Nordeste 12 Este 0 1021.5 -0.4 70
2019-03-28 02:00:00 12.4 6 Nordeste 32 Sudeste 0 1021.9 0.2 64
2019-03-28 01:00:00 14.1 12 Sudeste 24 Este 0 1022.2 1 63
2019-03-28 00:00:00 14.2 10 Sudeste 24 Este 0 1021.9 1.8 62
2019-03-27 23:00:00 14.5 10 Sudeste 26 Sudeste 0 1021.7 2.4 61
2019-03-27 22:00:00 14.9 10 Sudeste 26 Sudeste 0 1021.2 2.5 60
2019-03-27 21:00:00 15.3 12 Sudeste 26 Sur 0 1020.1 1.9 60
2019-03-27 20:00:00 15.7 11 Sudeste 24 Sur 0 1019.3 1.2 56
2019-03-27 19:00:00 17 11 Sudeste 27 Sur 0 1018.7 0.2 50
2019-03-27 18:00:00 18.1 13 Sudeste 23 Sur 0 1018.2 -0.3 49
2019-03-27 17:00:00 18.9 13 Sur 21 Sur 0 1018.1 -0.7 46
2019-03-27 16:00:00 19.5 10 Sudeste 23 Sudeste 0 1018.5 -1 40
2019-03-27 15:00:00 19.1 10 Sudeste 22 Sudeste 0 1018.5 -0.8 40
2019-03-27 14:00:00 19.1 10 Sudeste 24 Sudeste 0 1018.8 -0.3 41
2019-03-27 13:00:00 17.8 10 Sudeste 30 Sudeste 0 1019.5 1.3 44
2019-03-27 12:00:00 18.3 15 Este 32 Este 0 1019.3 1.4 44
2019-03-27 11:00:00 17.6 12 Este 25 Este 0 1019.1 1.8 47
2019-03-27 10:00:00 16.1 13 Este 23 Este 0 1018.2 1.8 54
2019-03-27 09:00:00 13.9 9 Este 21 Este 0 1017.9 2 64
2019-03-27 08:00:00 11.3 6 Este 12 Nordeste 0 1017.3 2 72
2019-03-27 07:00:00 11.7 5 Nordeste 12 Nordeste 0 1016.4 1.4 63
2019-03-27 06:00:00 12.6 5 Nordeste 21 Sudeste 0 1015.9 1 59
2019-03-27 05:00:00 14.9 9 Sudeste 31 Sudeste 0 1015.3 0.6 54
2019-03-27 04:00:00 15.1 11 Sudeste 26 Este 0 1015 0.3 57
2019-03-27 03:00:00 15.3 14 Sudeste 32 Este 0 1014.9 0.6 58
2019-03-27 02:00:00 15.6 16 Sudeste 35 Sudeste 0 1014.7 1.2 58
2019-03-27 01:00:00 15.8 14 Sudeste 35 Sudeste 0 1014.7 1.9 66
2019-03-27 00:00:00 16.2 17 Sudeste 34 Sudeste 0 1014.3 2 64